createdAt,value
2023-05-05T00:01:00.227Z,10.65
2023-05-05T00:03:28.117Z,11.40
2023-05-05T00:05:56.028Z,11.00
2023-05-05T00:08:23.925Z,11.07
2023-05-05T00:10:52.438Z,11.00
2023-05-05T00:13:20.917Z,11.93
2023-05-05T00:15:49.368Z,11.73
2023-05-05T00:18:17.567Z,11.85
2023-05-05T00:20:47.116Z,12.60
2023-05-05T00:23:14.949Z,12.35
2023-05-05T00:25:42.425Z,11.70
2023-05-05T00:28:10.119Z,12.90
2023-05-05T00:30:38.094Z,12.52
2023-05-05T00:33:05.867Z,12.52
2023-05-05T00:35:33.268Z,13.00
2023-05-05T00:38:00.773Z,12.85
2023-05-05T00:40:29.209Z,13.32
2023-05-05T00:42:56.633Z,13.57
2023-05-05T00:45:24.284Z,13.07
2023-05-05T00:47:53.225Z,13.75
2023-05-05T00:50:28.742Z,13.48
2023-05-05T00:52:57.621Z,14.35
2023-05-05T00:55:25.266Z,13.80
2023-05-05T00:57:53.438Z,14.10
2023-05-05T01:00:20.912Z,15.00
2023-05-05T01:02:48.434Z,15.85
2023-05-05T01:05:16.652Z,14.70
2023-05-05T01:07:44.080Z,15.30
2023-05-05T01:10:30.526Z,16.30
2023-05-05T01:13:07.302Z,16.00
2023-05-05T01:15:48.902Z,16.75
2023-05-05T01:18:25.559Z,16.15
2023-05-05T01:21:08.955Z,16.52
2023-05-05T01:23:51.859Z,16.77
2023-05-05T01:26:36.102Z,16.52
2023-05-05T01:29:03.667Z,16.88
2023-05-05T01:31:53.181Z,17.00
2023-05-05T01:34:33.358Z,17.85
2023-05-05T01:37:27.109Z,16.70
2023-05-05T01:39:58.366Z,17.02
2023-05-05T01:42:27.124Z,17.00
2023-05-05T01:44:54.941Z,16.05
2023-05-05T01:47:24.189Z,16.42
2023-05-05T01:49:53.032Z,16.85
2023-05-05T01:52:21.306Z,17.20
2023-05-05T01:54:49.728Z,16.55
2023-05-05T01:57:17.572Z,16.67
2023-05-05T01:59:45.034Z,17.60
2023-05-05T02:02:13.847Z,16.38
2023-05-05T02:04:45.109Z,16.05
2023-05-05T02:07:13.764Z,16.33
2023-05-05T02:09:41.958Z,15.80
2023-05-05T02:12:09.938Z,16.17
2023-05-05T02:14:38.023Z,15.43
2023-05-05T02:17:05.623Z,15.20
2023-05-05T02:19:34.976Z,14.50
2023-05-05T02:22:02.476Z,14.40
2023-05-05T02:24:30.927Z,14.73
2023-05-05T02:26:59.186Z,15.25
2023-05-05T02:29:32.275Z,15.15
2023-05-05T02:32:03.324Z,15.50
2023-05-05T02:34:34.311Z,15.02
2023-05-05T02:37:04.220Z,16.02
2023-05-05T02:39:43.787Z,16.70
2023-05-05T02:42:17.000Z,15.55
2023-05-05T02:44:45.921Z,14.98
2023-05-05T02:47:14.274Z,15.38
2023-05-05T02:49:41.859Z,15.55
2023-05-05T02:52:09.423Z,14.88
2023-05-05T02:54:38.829Z,16.23
2023-05-05T02:57:16.416Z,15.20
2023-05-05T02:59:49.611Z,14.88
2023-05-05T03:02:24.987Z,15.52
2023-05-05T03:04:55.732Z,16.00
2023-05-05T03:07:28.530Z,15.27
2023-05-05T03:10:05.011Z,14.30
2023-05-05T03:12:46.829Z,14.15
2023-05-05T03:15:22.308Z,15.27
2023-05-05T03:17:51.578Z,14.55
2023-05-05T03:20:19.402Z,14.38
2023-05-05T03:22:49.848Z,14.40
2023-05-05T03:25:17.455Z,14.90
2023-05-05T03:27:45.007Z,14.25
2023-05-05T03:30:15.613Z,15.20
2023-05-05T03:32:49.177Z,14.65
2023-05-05T03:35:16.865Z,14.82
2023-05-05T03:37:44.487Z,15.13
2023-05-05T03:40:13.791Z,14.80
2023-05-05T03:42:41.938Z,15.07
2023-05-05T03:45:09.813Z,14.93
2023-05-05T03:47:37.711Z,14.48
2023-05-05T03:50:06.756Z,14.82
2023-05-05T03:52:34.601Z,14.43
2023-05-05T03:55:02.157Z,13.35
2023-05-05T03:57:29.934Z,14.43
2023-05-05T03:59:57.559Z,14.25
2023-05-05T04:02:25.253Z,13.60
2023-05-05T04:04:52.972Z,13.98
2023-05-05T04:07:22.745Z,14.60
2023-05-05T04:09:50.907Z,13.38
2023-05-05T04:12:18.861Z,14.07
2023-05-05T04:14:46.683Z,13.93
2023-05-05T04:17:14.670Z,14.48
2023-05-05T04:19:42.425Z,15.05
2023-05-05T04:22:09.919Z,13.98
2023-05-05T04:24:37.469Z,13.98
2023-05-05T04:27:05.161Z,14.02
2023-05-05T04:29:32.664Z,13.95
2023-05-05T04:32:00.074Z,14.35
2023-05-05T04:34:28.318Z,14.20
2023-05-05T04:36:55.857Z,13.25
2023-05-05T04:39:23.440Z,13.40
2023-05-05T04:41:51.047Z,12.85
2023-05-05T04:44:18.502Z,13.48
2023-05-05T04:46:46.203Z,13.73
2023-05-05T04:49:13.609Z,14.57
2023-05-05T04:51:44.151Z,13.27
2023-05-05T04:54:11.647Z,12.32
2023-05-05T04:56:39.084Z,13.45
2023-05-05T04:59:07.081Z,12.85
2023-05-05T05:01:36.917Z,13.90
2023-05-05T05:04:06.023Z,13.30
2023-05-05T05:06:33.992Z,13.27
2023-05-05T05:09:01.865Z,14.15
2023-05-05T05:11:29.814Z,12.30
2023-05-05T05:13:57.384Z,12.98
2023-05-05T05:16:25.752Z,12.80
2023-05-05T05:18:53.355Z,13.63
2023-05-05T05:21:21.317Z,11.98
2023-05-05T05:23:49.164Z,11.73
2023-05-05T05:26:16.869Z,11.07
2023-05-05T05:28:44.761Z,10.70
2023-05-05T05:31:12.929Z,13.55
2023-05-05T05:33:40.487Z,13.68
2023-05-05T05:36:08.260Z,11.13
2023-05-05T05:38:36.333Z,10.88
2023-05-05T05:41:07.322Z,10.10
2023-05-05T05:43:36.136Z,10.20
2023-05-05T05:46:05.867Z,9.80
2023-05-05T05:48:35.142Z,8.85
2023-05-05T05:51:02.576Z,9.23
2023-05-05T05:53:30.275Z,8.80
2023-05-05T05:55:57.857Z,8.07
2023-05-05T05:58:25.302Z,8.15
2023-05-05T06:00:52.951Z,7.75
2023-05-05T06:03:20.671Z,8.35
2023-05-05T06:05:48.268Z,8.60
2023-05-05T06:08:16.667Z,7.57
2023-05-05T06:10:48.862Z,8.02
2023-05-05T06:13:19.459Z,7.45
2023-05-05T06:15:50.143Z,8.18
2023-05-05T06:18:18.592Z,8.63
2023-05-05T06:20:46.247Z,8.32
2023-05-05T06:23:15.478Z,8.55
2023-05-05T06:25:48.065Z,8.13
2023-05-05T06:28:16.300Z,7.40
2023-05-05T06:30:43.708Z,8.27
2023-05-05T06:33:11.152Z,8.50
2023-05-05T06:35:38.593Z,8.10
2023-05-05T06:38:06.167Z,7.88
2023-05-05T06:40:33.540Z,8.20
2023-05-05T06:43:00.935Z,8.88
2023-05-05T06:45:34.908Z,8.43
2023-05-05T06:48:02.439Z,7.97
2023-05-05T06:50:29.907Z,8.32
2023-05-05T06:52:57.366Z,7.95
2023-05-05T06:55:25.022Z,8.30
2023-05-05T06:57:52.529Z,8.00
2023-05-05T07:00:20.066Z,7.43
2023-05-05T07:02:47.671Z,8.13
2023-05-05T07:05:15.104Z,10.20
2023-05-05T07:07:52.693Z,9.00
2023-05-05T07:10:20.585Z,8.20
2023-05-05T07:12:48.033Z,7.68
2023-05-05T07:15:26.813Z,7.82
2023-05-05T07:17:56.632Z,7.30
2023-05-05T07:20:24.543Z,8.35
2023-05-05T07:22:52.200Z,6.65
2023-05-05T07:25:19.729Z,6.95
2023-05-05T07:27:47.134Z,7.25
2023-05-05T07:30:18.083Z,7.60
2023-05-05T07:32:46.342Z,7.05
2023-05-05T07:35:14.064Z,8.07
2023-05-05T07:37:41.505Z,8.00
2023-05-05T07:40:09.421Z,7.63
2023-05-05T07:42:37.194Z,7.90
2023-05-05T07:45:05.143Z,6.75
2023-05-05T07:47:32.861Z,7.05
2023-05-05T07:50:00.328Z,6.85
2023-05-05T07:52:43.519Z,7.32
2023-05-05T07:55:13.826Z,6.55
2023-05-05T07:57:41.521Z,6.70
2023-05-05T08:00:09.750Z,6.53
2023-05-05T08:02:40.334Z,5.55
2023-05-05T08:05:08.391Z,6.13
2023-05-05T08:07:38.229Z,7.55
2023-05-05T08:10:05.966Z,6.53
2023-05-05T08:12:33.445Z,5.75
2023-05-05T08:15:00.972Z,16.05
2023-05-05T08:17:28.424Z,5.50
2023-05-05T08:19:55.912Z,5.30
2023-05-05T08:22:23.414Z,5.25
2023-05-05T08:24:51.029Z,5.03
2023-05-05T08:27:21.061Z,6.00
2023-05-05T08:29:48.467Z,5.35
2023-05-05T08:32:16.467Z,5.22
2023-05-05T08:34:43.903Z,4.82
2023-05-05T08:37:11.460Z,5.43
2023-05-05T08:39:38.913Z,5.38
2023-05-05T08:42:06.365Z,5.78
2023-05-05T08:44:34.344Z,5.80
2023-05-05T08:47:02.824Z,5.85
2023-05-05T08:49:32.737Z,5.50
2023-05-05T08:52:02.038Z,6.93
2023-05-05T08:54:31.977Z,6.00
2023-05-05T08:57:02.432Z,6.38
2023-05-05T08:59:33.498Z,5.80
2023-05-05T09:02:01.250Z,6.10
2023-05-05T09:04:28.787Z,5.85
2023-05-05T09:06:58.498Z,5.88
2023-05-05T09:09:26.096Z,5.70
2023-05-05T09:11:54.522Z,5.60
2023-05-05T09:14:21.956Z,5.65
2023-05-05T09:16:49.453Z,5.95
2023-05-05T09:19:16.962Z,6.22
2023-05-05T09:21:51.138Z,6.18
2023-05-05T09:24:18.797Z,5.75
2023-05-05T09:26:47.249Z,6.70
2023-05-05T09:29:21.457Z,5.35
2023-05-05T09:32:08.583Z,26.85
2023-05-05T09:34:36.591Z,8.27
2023-05-05T09:37:04.542Z,5.90
2023-05-05T09:39:32.050Z,6.97
2023-05-05T09:41:59.536Z,6.07
2023-05-05T09:44:36.902Z,6.88
2023-05-05T09:47:07.340Z,5.95
2023-05-05T09:49:42.471Z,5.88
2023-05-05T09:52:16.795Z,5.47
2023-05-05T09:54:44.596Z,7.60
2023-05-05T09:57:28.471Z,11.00
2023-05-05T09:59:59.725Z,7.82
2023-05-05T10:02:33.231Z,7.28
2023-05-05T10:07:29.940Z,5.95
2023-05-05T10:09:57.349Z,5.63
2023-05-05T10:12:26.258Z,6.28
2023-05-05T10:14:55.859Z,8.07
2023-05-05T10:17:23.695Z,15.32
2023-05-05T10:19:53.256Z,8.90
2023-05-05T10:22:23.825Z,7.15
2023-05-05T10:24:53.375Z,7.20
2023-05-05T10:27:21.324Z,6.93
2023-05-05T10:29:51.547Z,6.95
2023-05-05T10:32:50.897Z,8.10
2023-05-05T10:35:11.937Z,9.48
2023-05-05T10:37:39.440Z,10.77
2023-05-05T10:40:08.298Z,10.63
2023-05-05T10:42:38.341Z,11.48
2023-05-05T10:45:06.510Z,11.82
2023-05-05T10:47:34.156Z,9.50
2023-05-05T10:50:11.386Z,8.18
2023-05-05T10:52:43.768Z,6.25
2023-05-05T10:55:14.339Z,8.02
2023-05-05T10:57:42.737Z,5.55
2023-05-05T11:00:10.969Z,5.20
2023-05-05T11:02:38.581Z,5.05
2023-05-05T11:05:10.335Z,4.30
2023-05-05T11:07:38.286Z,4.47
2023-05-05T11:10:06.783Z,4.57
2023-05-05T11:12:54.906Z,6.22
2023-05-05T11:15:25.097Z,4.35
2023-05-05T11:17:53.393Z,4.43
2023-05-05T11:20:45.030Z,5.80
2023-05-05T11:23:15.977Z,4.50
2023-05-05T11:25:44.642Z,5.90
2023-05-05T11:28:16.669Z,5.50
2023-05-05T11:30:57.281Z,4.55
2023-05-05T11:33:25.829Z,4.68
2023-05-05T11:35:56.347Z,5.13
2023-05-05T11:38:42.582Z,4.97
2023-05-05T11:41:14.434Z,4.72
2023-05-05T11:43:42.447Z,6.30
2023-05-05T11:46:19.631Z,5.85
2023-05-05T11:48:47.690Z,6.10
2023-05-05T11:51:22.215Z,6.22
2023-05-05T11:53:50.123Z,6.30
2023-05-05T11:56:22.262Z,7.05
2023-05-05T11:58:50.250Z,7.28
2023-05-05T12:01:17.748Z,8.02
2023-05-05T12:03:45.942Z,10.73
2023-05-05T12:06:14.106Z,10.38
2023-05-05T12:08:42.270Z,9.60
2023-05-05T12:11:11.762Z,7.78
2023-05-05T12:13:39.196Z,8.27
2023-05-05T12:16:13.524Z,12.98
2023-05-05T12:18:41.329Z,7.63
2023-05-05T12:21:21.209Z,6.25
2023-05-05T12:23:48.804Z,8.50
2023-05-05T12:26:29.397Z,8.27
2023-05-05T12:28:57.437Z,10.40
2023-05-05T12:31:34.493Z,8.63
2023-05-05T12:34:02.326Z,10.32
2023-05-05T12:36:30.778Z,9.18
2023-05-05T12:38:58.981Z,8.55
2023-05-05T12:41:26.916Z,9.82
2023-05-05T12:43:57.917Z,7.72
2023-05-05T12:46:26.564Z,38.03
2023-05-05T12:49:07.037Z,7.18
2023-05-05T12:51:37.893Z,8.60
2023-05-05T12:54:09.868Z,10.25
2023-05-05T12:56:38.634Z,9.30
2023-05-05T12:59:10.228Z,6.88
2023-05-05T13:01:38.842Z,8.65
2023-05-05T13:04:10.814Z,8.80
2023-05-05T13:06:39.033Z,7.85
2023-05-05T13:09:06.772Z,10.18
2023-05-05T13:11:37.777Z,10.48
2023-05-05T13:14:05.801Z,7.20
2023-05-05T13:16:33.986Z,7.50
2023-05-05T13:19:01.465Z,7.57
2023-05-05T13:21:28.862Z,7.30
2023-05-05T13:24:05.040Z,6.90
2023-05-05T13:26:36.010Z,7.47
2023-05-05T13:29:03.413Z,6.60
2023-05-05T13:31:31.086Z,6.28
2023-05-05T13:33:58.529Z,6.10
2023-05-05T13:36:27.008Z,6.97
2023-05-05T13:38:54.502Z,7.43
2023-05-05T13:41:21.972Z,8.85
2023-05-05T13:43:49.738Z,6.30
2023-05-05T13:46:20.088Z,6.15
2023-05-05T13:48:47.993Z,5.90
2023-05-05T13:51:16.344Z,5.80
2023-05-05T13:53:44.247Z,6.85
2023-05-05T13:56:11.796Z,6.05
2023-05-05T13:58:39.203Z,5.53
2023-05-05T14:01:06.735Z,5.93
2023-05-05T14:03:34.356Z,6.90
2023-05-05T14:06:01.816Z,7.43
2023-05-05T14:08:29.243Z,6.55
2023-05-05T14:10:56.750Z,59.67
2023-05-05T14:13:24.517Z,5.13
2023-05-05T14:15:52.802Z,5.35
2023-05-05T14:18:20.277Z,5.70
2023-05-05T14:20:47.755Z,4.40
2023-05-05T14:23:15.249Z,10.40
2023-05-05T14:25:42.755Z,4.80
2023-05-05T14:28:10.256Z,12.30
2023-05-05T14:30:37.716Z,4.93
2023-05-05T14:33:05.251Z,6.07
2023-05-05T14:35:32.809Z,4.95
2023-05-05T14:38:00.268Z,4.53
2023-05-05T14:40:29.511Z,9.25
2023-05-05T14:42:57.819Z,4.07
2023-05-05T14:45:26.454Z,4.03
2023-05-05T14:47:53.977Z,4.18
2023-05-05T14:50:21.551Z,3.95
2023-05-05T14:52:48.940Z,4.50
2023-05-05T14:55:16.352Z,4.90
2023-05-05T14:57:43.779Z,6.05
2023-05-05T15:00:11.428Z,6.93
2023-05-05T15:02:38.825Z,8.68
2023-05-05T15:05:07.394Z,7.68
2023-05-05T15:07:35.193Z,6.40
2023-05-05T15:10:02.844Z,7.78
2023-05-05T15:12:30.300Z,5.10
2023-05-05T15:14:57.829Z,5.03
2023-05-05T15:17:26.049Z,3.80
2023-05-05T15:19:53.589Z,6.40
2023-05-05T15:22:21.006Z,6.90
2023-05-05T15:24:48.536Z,4.60
2023-05-05T15:27:15.990Z,4.03
2023-05-05T15:29:43.509Z,4.13
2023-05-05T15:32:11.472Z,4.13
2023-05-05T15:34:39.158Z,3.90
2023-05-05T15:37:06.772Z,5.00
2023-05-05T15:39:34.199Z,3.70
2023-05-05T15:42:04.958Z,4.32
2023-05-05T15:44:32.596Z,4.60
2023-05-05T15:47:00.075Z,3.80
2023-05-05T15:49:27.671Z,5.30
2023-05-05T15:51:55.081Z,4.15
2023-05-05T15:54:22.531Z,3.85
2023-05-05T15:56:49.917Z,3.83
2023-05-05T15:59:17.356Z,3.80
2023-05-05T16:01:44.762Z,4.35
2023-05-05T16:04:12.249Z,4.47
2023-05-05T16:06:39.892Z,4.43
2023-05-05T16:09:07.491Z,4.30
2023-05-05T16:11:35.073Z,4.85
2023-05-05T16:14:02.443Z,5.05
2023-05-05T16:16:29.844Z,6.57
2023-05-05T16:18:57.411Z,5.95
2023-05-05T16:21:25.101Z,4.57
2023-05-05T16:23:52.820Z,4.07
2023-05-05T16:26:20.236Z,3.50
2023-05-05T16:28:47.688Z,4.20
2023-05-05T16:31:15.127Z,3.75
2023-05-05T16:33:43.736Z,3.70
2023-05-05T16:36:12.394Z,3.97
2023-05-05T16:38:40.626Z,5.80
2023-05-05T16:41:08.293Z,6.28
2023-05-05T16:43:38.952Z,7.35
2023-05-05T16:46:09.742Z,7.50
2023-05-05T16:48:37.352Z,7.43
2023-05-05T16:51:04.851Z,8.80
2023-05-05T16:53:32.335Z,9.55
2023-05-05T16:56:02.628Z,10.15
2023-05-05T16:58:30.193Z,10.57
2023-05-05T17:00:57.777Z,9.70
2023-05-05T17:03:25.168Z,7.93
2023-05-05T17:05:53.747Z,7.68
2023-05-05T17:08:21.308Z,7.55
2023-05-05T17:10:48.754Z,9.07
2023-05-05T17:13:16.308Z,8.23
2023-05-05T17:15:44.387Z,7.55
2023-05-05T17:18:13.153Z,8.48
2023-05-05T17:20:40.946Z,7.70
2023-05-05T17:23:08.871Z,7.65
2023-05-05T17:25:36.412Z,7.72
2023-05-05T17:28:07.462Z,7.43
2023-05-05T17:30:34.992Z,8.18
2023-05-05T17:33:02.386Z,6.53
2023-05-05T17:35:29.938Z,6.20
2023-05-05T17:37:57.456Z,6.45
2023-05-05T17:40:25.020Z,6.47
2023-05-05T17:42:52.448Z,6.03
2023-05-05T17:45:19.885Z,5.35
2023-05-05T17:47:47.442Z,6.18
2023-05-05T17:50:14.920Z,7.20
2023-05-05T17:52:43.883Z,6.90
2023-05-05T17:55:11.630Z,7.00
2023-05-05T17:57:39.424Z,7.18
2023-05-05T18:00:07.286Z,6.38
2023-05-05T18:02:41.129Z,6.28
2023-05-05T18:05:09.203Z,6.60
2023-05-05T18:07:38.602Z,6.43
2023-05-05T18:10:08.358Z,6.53
2023-05-05T18:12:35.920Z,5.80
2023-05-05T18:15:03.821Z,6.97
2023-05-05T18:17:31.306Z,6.65
2023-05-05T18:19:58.685Z,7.00
2023-05-05T18:22:26.327Z,7.32
2023-05-05T18:24:59.073Z,8.52
2023-05-05T18:27:27.151Z,7.32
2023-05-05T18:29:54.657Z,9.20
2023-05-05T18:32:22.094Z,10.73
2023-05-05T18:34:49.508Z,11.90
2023-05-05T18:37:17.159Z,10.23
2023-05-05T18:39:45.178Z,9.68
2023-05-05T18:42:15.468Z,10.23
2023-05-05T18:44:45.036Z,10.20
2023-05-05T18:47:12.546Z,10.05
2023-05-05T18:49:39.947Z,10.15
2023-05-05T18:52:07.405Z,10.02
2023-05-05T18:54:36.325Z,9.90
2023-05-05T18:57:05.519Z,11.43
2023-05-05T18:59:33.037Z,13.18
2023-05-05T19:02:00.557Z,13.13
2023-05-05T19:04:31.665Z,14.50
2023-05-05T19:07:00.179Z,14.30
2023-05-05T19:09:28.174Z,15.55
2023-05-05T19:11:55.726Z,12.80
2023-05-05T19:14:23.788Z,10.98
2023-05-05T19:16:51.431Z,11.10
2023-05-05T19:19:19.112Z,11.73
2023-05-05T19:21:46.642Z,11.13
2023-05-05T19:24:14.149Z,9.52
2023-05-05T19:26:41.706Z,9.85
2023-05-05T19:29:09.147Z,10.30
2023-05-05T19:31:36.754Z,9.65
2023-05-05T19:34:04.975Z,9.82
2023-05-05T19:36:32.734Z,9.13
2023-05-05T19:39:04.505Z,9.38
2023-05-05T19:41:32.740Z,8.98
2023-05-05T19:44:00.229Z,9.10
2023-05-05T19:46:27.782Z,14.02
2023-05-05T19:48:55.165Z,9.10
2023-05-05T19:51:22.657Z,8.68
2023-05-05T19:53:50.740Z,8.63
2023-05-05T19:56:18.353Z,10.02
2023-05-05T19:59:01.457Z,8.30
2023-05-05T20:01:29.556Z,8.75
2023-05-05T20:03:57.755Z,9.00
2023-05-05T20:06:25.715Z,9.55
2023-05-05T20:08:54.757Z,9.45
2023-05-05T20:11:22.331Z,8.25
2023-05-05T20:13:50.980Z,9.68
2023-05-05T20:16:19.187Z,9.55
2023-05-05T20:18:46.727Z,9.00
2023-05-05T20:21:15.041Z,8.88
2023-05-05T20:23:42.933Z,9.75
2023-05-05T20:26:10.576Z,9.05
2023-05-05T20:28:39.737Z,9.20
2023-05-05T20:31:09.303Z,9.32
2023-05-05T20:33:36.807Z,9.80
2023-05-05T20:36:04.482Z,9.80
2023-05-05T20:38:31.865Z,9.38
2023-05-05T20:40:59.464Z,9.68
2023-05-05T20:43:26.891Z,10.52
2023-05-05T20:45:54.338Z,10.23
2023-05-05T20:48:21.705Z,10.32
2023-05-05T20:50:51.097Z,10.52
2023-05-05T20:53:19.218Z,10.63
2023-05-05T20:55:46.715Z,11.35
2023-05-05T20:58:14.181Z,11.48
2023-05-05T21:00:41.657Z,11.07
2023-05-05T21:03:09.132Z,12.05
2023-05-05T21:05:37.309Z,11.48
2023-05-05T21:08:04.773Z,12.07
2023-05-05T21:10:33.099Z,11.82
2023-05-05T21:13:01.708Z,12.52
2023-05-05T21:15:29.243Z,12.23
2023-05-05T21:17:57.652Z,11.98
2023-05-05T21:20:25.124Z,12.02
2023-05-05T21:22:52.490Z,13.48
2023-05-05T21:25:21.174Z,12.70
2023-05-05T21:27:49.125Z,13.85
2023-05-05T21:30:17.493Z,14.40
2023-05-05T21:32:45.269Z,14.25
2023-05-05T21:35:12.771Z,15.27
2023-05-05T21:37:40.315Z,15.52
2023-05-05T21:40:13.758Z,16.13
2023-05-05T21:42:42.350Z,17.23
2023-05-05T21:45:11.064Z,19.17
2023-05-05T21:47:38.605Z,20.38
2023-05-05T21:50:06.325Z,20.50
2023-05-05T21:52:34.017Z,20.95
2023-05-05T21:55:01.527Z,20.27
2023-05-05T21:57:29.042Z,19.88
2023-05-05T21:59:56.420Z,20.58
2023-05-05T22:02:23.942Z,21.65
2023-05-05T22:04:52.299Z,22.55
2023-05-05T22:07:19.902Z,21.23
2023-05-05T22:09:47.461Z,20.90
2023-05-05T22:12:15.077Z,20.77
2023-05-05T22:14:42.450Z,20.83
2023-05-05T22:17:09.880Z,20.65
2023-05-05T22:19:37.229Z,21.75
2023-05-05T22:22:04.765Z,20.02
2023-05-05T22:24:32.230Z,18.90
2023-05-05T22:26:59.868Z,20.35
2023-05-05T22:29:27.514Z,19.85
2023-05-05T22:31:55.050Z,19.98
2023-05-05T22:34:23.841Z,19.67
2023-05-05T22:36:51.254Z,20.33
2023-05-05T22:39:18.841Z,20.30
2023-05-05T22:41:46.283Z,20.13
2023-05-05T22:44:13.837Z,19.65
2023-05-05T22:46:42.121Z,20.33
2023-05-05T22:49:09.749Z,20.70
2023-05-05T22:51:37.533Z,20.55
2023-05-05T22:54:05.078Z,20.48
2023-05-05T22:56:32.738Z,19.77
2023-05-05T22:59:00.458Z,19.90
2023-05-05T23:01:27.951Z,20.98
2023-05-05T23:03:55.454Z,19.75
2023-05-05T23:06:22.912Z,19.88
2023-05-05T23:08:50.350Z,19.83
2023-05-05T23:11:17.742Z,19.27
2023-05-05T23:13:45.321Z,18.77
2023-05-05T23:16:12.773Z,18.20
2023-05-05T23:18:40.266Z,19.25
2023-05-05T23:21:07.669Z,19.65
2023-05-05T23:23:35.165Z,19.58
2023-05-05T23:26:02.560Z,20.05
2023-05-05T23:28:30.012Z,20.60
2023-05-05T23:30:57.408Z,19.90
2023-05-05T23:33:24.899Z,20.13
2023-05-05T23:35:52.467Z,20.65
2023-05-05T23:38:19.885Z,20.33
2023-05-05T23:40:47.310Z,20.67
2023-05-05T23:43:14.684Z,19.65
2023-05-05T23:45:42.160Z,19.42
2023-05-05T23:48:09.705Z,19.50
2023-05-05T23:50:37.108Z,19.75
2023-05-05T23:53:04.475Z,19.73
2023-05-05T23:55:31.880Z,18.80
2023-05-05T23:57:59.335Z,18.35
